createdAt,value
2022-08-29T00:01:13.369Z,15.53
2022-08-29T00:03:43.145Z,15.60
2022-08-29T00:06:11.049Z,15.58
2022-08-29T00:08:38.199Z,15.52
2022-08-29T00:11:09.350Z,15.47
2022-08-29T00:13:36.519Z,15.44
2022-08-29T00:16:03.904Z,15.33
2022-08-29T00:18:31.188Z,15.44
2022-08-29T00:20:58.443Z,15.40
2022-08-29T00:23:25.900Z,15.33
2022-08-29T00:25:53.210Z,15.40
2022-08-29T00:28:20.742Z,15.42
2022-08-29T00:30:48.664Z,15.37
2022-08-29T00:33:16.421Z,15.40
2022-08-29T00:35:45.685Z,15.45
2022-08-29T00:38:16.365Z,15.49
2022-08-29T00:40:52.385Z,15.48
2022-08-29T00:43:26.268Z,15.56
2022-08-29T00:46:09.537Z,15.46
2022-08-29T00:48:39.117Z,15.45
2022-08-29T00:51:12.737Z,15.39
2022-08-29T00:53:44.432Z,15.06
2022-08-29T00:56:14.624Z,15.20
2022-08-29T00:58:48.098Z,15.17
2022-08-29T01:01:15.623Z,15.28
2022-08-29T01:03:43.354Z,15.26
2022-08-29T01:06:13.458Z,15.17
2022-08-29T01:08:41.503Z,15.13
2022-08-29T01:11:30.053Z,15.21
2022-08-29T01:13:58.291Z,15.31
2022-08-29T01:16:28.014Z,15.44
2022-08-29T01:19:03.265Z,15.27
2022-08-29T01:21:44.497Z,14.74
2022-08-29T01:24:22.980Z,14.64
2022-08-29T01:26:50.061Z,14.61
2022-08-29T01:29:17.209Z,14.88
2022-08-29T01:31:57.416Z,15.08
2022-08-29T01:34:27.875Z,14.95
2022-08-29T01:37:02.761Z,15.27
2022-08-29T01:39:33.808Z,15.22
2022-08-29T01:42:04.601Z,15.32
2022-08-29T01:44:31.908Z,15.38
2022-08-29T01:47:02.861Z,15.33
2022-08-29T01:49:37.862Z,15.36
2022-08-29T01:52:08.779Z,15.43
2022-08-29T01:54:36.385Z,15.46
2022-08-29T01:57:04.072Z,15.62
2022-08-29T01:59:32.222Z,15.63
2022-08-29T02:02:05.963Z,15.78
2022-08-29T02:04:33.474Z,15.78
2022-08-29T02:07:01.075Z,15.59
2022-08-29T02:09:28.838Z,15.73
2022-08-29T02:11:58.210Z,15.75
2022-08-29T02:14:26.132Z,15.57
2022-08-29T02:16:53.246Z,15.62
2022-08-29T02:19:20.822Z,15.64
2022-08-29T02:21:50.831Z,15.08
2022-08-29T02:24:26.275Z,14.93
2022-08-29T02:26:55.848Z,15.19
2022-08-29T02:29:24.445Z,14.95
2022-08-29T02:31:51.670Z,14.84
2022-08-29T02:34:19.543Z,15.02
2022-08-29T02:36:49.061Z,14.64
2022-08-29T02:39:18.126Z,14.72
2022-08-29T02:41:45.469Z,14.75
2022-08-29T02:44:12.945Z,15.07
2022-08-29T02:46:40.116Z,15.08
2022-08-29T02:49:07.281Z,14.86
2022-08-29T02:51:34.767Z,15.17
2022-08-29T02:54:02.326Z,15.34
2022-08-29T02:56:29.933Z,15.54
2022-08-29T02:58:58.198Z,15.66
2022-08-29T03:01:26.195Z,15.27
2022-08-29T03:03:54.238Z,15.45
2022-08-29T03:06:22.375Z,15.28
2022-08-29T03:08:50.461Z,15.29
2022-08-29T03:11:17.817Z,15.13
2022-08-29T03:13:45.655Z,15.18
2022-08-29T03:16:13.444Z,15.34
2022-08-29T03:18:40.873Z,15.43
2022-08-29T03:21:16.297Z,15.50
2022-08-29T03:23:43.783Z,15.56
2022-08-29T03:26:10.950Z,15.45
2022-08-29T03:28:38.127Z,15.40
2022-08-29T03:31:05.443Z,15.37
2022-08-29T03:33:32.798Z,15.39
2022-08-29T03:35:59.895Z,15.35
2022-08-29T03:38:27.152Z,14.99
2022-08-29T03:40:58.183Z,15.11
2022-08-29T03:43:25.649Z,15.28
2022-08-29T03:45:52.927Z,15.30
2022-08-29T03:48:20.253Z,15.32
2022-08-29T03:50:47.651Z,15.23
2022-08-29T03:53:14.855Z,15.23
2022-08-29T03:55:42.259Z,15.27
2022-08-29T03:58:09.494Z,15.24
2022-08-29T04:00:36.861Z,15.32
2022-08-29T04:03:04.228Z,15.37
2022-08-29T04:05:31.457Z,15.32
2022-08-29T04:07:59.477Z,15.21
2022-08-29T04:10:33.078Z,15.31
2022-08-29T04:13:01.439Z,15.34
2022-08-29T04:15:30.654Z,15.15
2022-08-29T04:18:00.578Z,15.20
2022-08-29T04:20:34.556Z,15.12
2022-08-29T04:23:01.828Z,15.06
2022-08-29T04:25:37.341Z,15.19
2022-08-29T04:28:11.490Z,15.08
2022-08-29T04:30:39.819Z,15.07
2022-08-29T04:33:08.072Z,15.05
2022-08-29T04:35:40.716Z,15.04
2022-08-29T04:38:08.507Z,14.98
2022-08-29T04:40:37.553Z,14.92
2022-08-29T04:43:04.707Z,14.86
2022-08-29T04:45:33.360Z,14.93
2022-08-29T04:48:03.544Z,14.92
2022-08-29T04:50:30.953Z,14.85
2022-08-29T04:52:58.107Z,14.82
2022-08-29T04:55:25.935Z,14.79
2022-08-29T04:57:56.211Z,14.65
2022-08-29T05:00:27.446Z,14.63
2022-08-29T05:02:55.795Z,14.77
2022-08-29T05:05:23.042Z,14.72
2022-08-29T05:07:50.283Z,14.87
2022-08-29T05:10:20.329Z,14.88
2022-08-29T05:12:47.826Z,15.03
2022-08-29T05:15:16.268Z,14.88
2022-08-29T05:17:44.183Z,15.00
2022-08-29T05:20:12.258Z,14.98
2022-08-29T05:22:41.974Z,14.90
2022-08-29T05:25:17.400Z,14.99
2022-08-29T05:27:46.272Z,15.00
2022-08-29T05:30:13.608Z,15.13
2022-08-29T05:32:40.842Z,15.13
2022-08-29T05:35:08.250Z,15.17
2022-08-29T05:37:36.511Z,15.26
2022-08-29T05:40:04.629Z,15.40
2022-08-29T05:42:32.100Z,15.46
2022-08-29T05:44:59.276Z,15.54
2022-08-29T05:47:26.584Z,15.72
2022-08-29T05:49:53.706Z,15.78
2022-08-29T05:52:21.473Z,15.95
2022-08-29T05:54:48.763Z,15.95
2022-08-29T05:57:19.827Z,16.09
2022-08-29T05:59:48.571Z,16.27
2022-08-29T06:02:17.498Z,16.26
2022-08-29T06:04:45.864Z,16.39
2022-08-29T06:07:13.615Z,16.57
2022-08-29T06:09:42.827Z,16.57
2022-08-29T06:12:13.567Z,16.64
2022-08-29T06:14:41.126Z,16.73
2022-08-29T06:17:09.256Z,16.82
2022-08-29T06:19:37.484Z,16.87
2022-08-29T06:22:09.709Z,16.99
2022-08-29T06:24:39.334Z,17.10
2022-08-29T06:27:06.573Z,17.32
2022-08-29T06:29:43.178Z,17.39
2022-08-29T06:32:12.003Z,17.45
2022-08-29T06:34:39.488Z,17.51
2022-08-29T06:37:06.710Z,17.74
2022-08-29T06:39:34.647Z,17.58
2022-08-29T06:42:01.838Z,17.47
2022-08-29T06:44:31.362Z,17.40
2022-08-29T06:46:59.233Z,17.55
2022-08-29T06:49:27.529Z,17.31
2022-08-29T06:51:58.007Z,17.51
2022-08-29T06:54:29.389Z,17.38
2022-08-29T06:56:57.844Z,17.27
2022-08-29T06:59:25.163Z,17.36
2022-08-29T07:01:52.767Z,17.42
2022-08-29T07:04:20.987Z,17.69
2022-08-29T07:06:49.274Z,17.72
2022-08-29T07:09:16.418Z,17.91
2022-08-29T07:11:43.787Z,18.06
2022-08-29T07:14:12.587Z,18.08
2022-08-29T07:16:41.198Z,18.05
2022-08-29T07:19:10.242Z,18.02
2022-08-29T07:21:38.511Z,18.02
2022-08-29T07:24:06.882Z,18.11
2022-08-29T07:26:42.496Z,18.06
2022-08-29T07:29:14.377Z,18.06
2022-08-29T07:31:41.880Z,18.13
2022-08-29T07:34:09.870Z,18.14
2022-08-29T07:36:37.937Z,18.23
2022-08-29T07:39:08.872Z,18.13
2022-08-29T07:41:37.549Z,18.21
2022-08-29T07:44:05.371Z,18.23
2022-08-29T07:46:32.661Z,18.33
2022-08-29T07:49:00.281Z,18.22
2022-08-29T07:51:28.461Z,18.11
2022-08-29T07:53:57.088Z,18.35
2022-08-29T07:56:28.498Z,18.41
2022-08-29T07:58:59.241Z,18.48
2022-08-29T08:01:27.273Z,18.50
2022-08-29T08:03:54.806Z,18.59
2022-08-29T08:06:27.071Z,18.81
2022-08-29T08:08:55.322Z,18.89
2022-08-29T08:11:24.715Z,18.90
2022-08-29T08:13:52.140Z,18.95
2022-08-29T08:16:21.531Z,18.90
2022-08-29T08:18:49.688Z,18.85
2022-08-29T08:21:16.833Z,18.98
2022-08-29T08:23:44.198Z,19.14
2022-08-29T08:26:12.682Z,19.38
2022-08-29T08:28:40.804Z,19.33
2022-08-29T08:31:10.018Z,19.31
2022-08-29T08:33:38.917Z,19.35
2022-08-29T08:36:28.691Z,19.48
2022-08-29T08:38:57.925Z,19.61
2022-08-29T08:41:49.430Z,19.86
2022-08-29T08:44:19.591Z,19.88
2022-08-29T08:46:50.718Z,19.81
2022-08-29T08:49:32.797Z,19.94
2022-08-29T08:52:05.916Z,20.10
2022-08-29T08:54:43.399Z,20.17
2022-08-29T08:57:12.961Z,20.27
2022-08-29T08:59:46.383Z,20.15
2022-08-29T09:02:16.213Z,20.25
2022-08-29T09:05:19.494Z,20.48
2022-08-29T09:08:06.061Z,20.45
2022-08-29T09:10:58.958Z,20.28
2022-08-29T09:13:36.346Z,20.29
2022-08-29T09:16:14.782Z,20.31
2022-08-29T09:18:44.394Z,20.42
2022-08-29T09:21:40.732Z,20.62
2022-08-29T09:24:18.298Z,20.79
2022-08-29T09:26:45.531Z,20.85
2022-08-29T09:29:13.914Z,20.84
2022-08-29T09:31:41.638Z,20.65
2022-08-29T09:34:12.883Z,20.72
2022-08-29T09:36:48.733Z,20.80
2022-08-29T09:39:21.554Z,21.19
2022-08-29T09:41:52.857Z,21.08
2022-08-29T09:44:29.556Z,20.92
2022-08-29T09:47:21.095Z,20.91
2022-08-29T09:50:03.273Z,21.04
2022-08-29T09:52:30.963Z,21.25
2022-08-29T09:55:15.566Z,21.57
2022-08-29T09:57:50.094Z,21.88
2022-08-29T10:00:25.747Z,21.87
2022-08-29T10:02:58.121Z,21.72
2022-08-29T10:05:36.521Z,21.41
2022-08-29T10:08:06.091Z,21.55
2022-08-29T10:10:36.420Z,21.95
2022-08-29T10:13:08.211Z,22.17
2022-08-29T10:15:51.364Z,21.95
2022-08-29T10:18:46.597Z,22.38
2022-08-29T10:21:16.700Z,22.29
2022-08-29T10:24:24.267Z,22.34
2022-08-29T10:27:16.093Z,22.43
2022-08-29T10:29:59.701Z,22.61
2022-08-29T10:32:31.707Z,22.30
2022-08-29T10:35:16.928Z,22.40
2022-08-29T10:38:05.657Z,22.99
2022-08-29T10:40:52.694Z,23.00
2022-08-29T10:43:38.502Z,23.13
2022-08-29T10:46:37.345Z,22.95
2022-08-29T10:49:25.459Z,23.03
2022-08-29T10:52:03.724Z,23.11
2022-08-29T10:54:42.651Z,22.86
2022-08-29T10:57:18.441Z,22.77
2022-08-29T11:00:04.539Z,23.07
2022-08-29T11:02:43.523Z,23.03
2022-08-29T11:05:25.699Z,23.40
2022-08-29T11:08:16.104Z,23.51
2022-08-29T11:10:49.773Z,23.57
2022-08-29T11:13:26.769Z,23.34
2022-08-29T11:16:06.757Z,23.61
2022-08-29T11:18:43.242Z,23.73
2022-08-29T11:21:35.005Z,23.62
2022-08-29T11:24:04.147Z,23.44
2022-08-29T11:26:43.359Z,23.45
2022-08-29T11:29:33.520Z,23.41
2022-08-29T11:32:08.532Z,23.82
2022-08-29T11:34:48.251Z,23.98
2022-08-29T11:37:34.055Z,23.59
2022-08-29T11:40:15.098Z,23.98
2022-08-29T11:42:50.733Z,24.20
2022-08-29T11:45:37.189Z,24.29
2022-08-29T11:48:32.447Z,23.90
2022-08-29T11:51:20.328Z,24.23
2022-08-29T11:53:47.673Z,24.29
2022-08-29T11:56:15.095Z,24.11
2022-08-29T11:58:50.088Z,24.52
2022-08-29T12:01:35.249Z,24.96
2022-08-29T12:04:07.919Z,24.79
2022-08-29T12:06:53.321Z,24.84
2022-08-29T12:09:43.156Z,24.77
2022-08-29T12:12:13.024Z,24.41
2022-08-29T12:14:44.179Z,24.84
2022-08-29T12:17:58.173Z,24.71
2022-08-29T12:20:32.000Z,25.57
2022-08-29T12:23:18.526Z,25.72
2022-08-29T12:28:58.075Z,25.83
2022-08-29T12:32:18.924Z,26.05
2022-08-29T12:35:23.181Z,26.67
2022-08-29T12:38:09.840Z,26.34
2022-08-29T12:40:48.354Z,26.58
2022-08-29T12:43:30.705Z,25.92
2022-08-29T12:45:58.597Z,25.99
2022-08-29T12:48:31.829Z,25.66
2022-08-29T12:50:59.056Z,26.27
2022-08-29T12:53:34.737Z,26.50
2022-08-29T12:56:16.793Z,25.76
2022-08-29T12:58:53.398Z,25.77
2022-08-29T13:01:26.377Z,25.92
2022-08-29T13:04:04.622Z,26.79
2022-08-29T13:06:33.630Z,27.45
2022-08-29T13:09:00.761Z,26.99
2022-08-29T13:11:30.227Z,26.78
2022-08-29T13:14:11.331Z,26.94
2022-08-29T13:16:39.681Z,27.08
2022-08-29T13:19:22.027Z,26.34
2022-08-29T13:21:49.280Z,26.38
2022-08-29T13:24:19.515Z,26.67
2022-08-29T13:27:05.995Z,26.82
2022-08-29T13:29:39.777Z,26.06
2022-08-29T13:32:26.411Z,26.08
2022-08-29T13:35:07.314Z,26.02
2022-08-29T13:37:40.148Z,26.88
2022-08-29T13:40:46.280Z,26.69
2022-08-29T13:43:38.221Z,26.92
2022-08-29T13:46:27.091Z,26.42
2022-08-29T13:49:00.133Z,26.51
2022-08-29T13:51:28.767Z,26.51
2022-08-29T13:53:56.212Z,25.84
2022-08-29T13:56:32.554Z,26.21
2022-08-29T13:59:00.291Z,26.12
2022-08-29T14:02:07.311Z,26.50
2022-08-29T14:04:36.944Z,27.29
2022-08-29T14:07:02.359Z,27.50
2022-08-29T14:09:34.076Z,27.40
2022-08-29T14:12:01.661Z,27.09
2022-08-29T14:14:28.718Z,27.04
2022-08-29T14:16:56.821Z,27.18
2022-08-29T14:19:24.836Z,26.88
2022-08-29T14:21:52.591Z,26.88
2022-08-29T14:24:19.857Z,27.27
2022-08-29T14:26:48.971Z,27.82
2022-08-29T14:29:24.993Z,27.59
2022-08-29T14:31:55.028Z,28.35
2022-08-29T14:34:22.147Z,33.14
2022-08-29T14:36:49.354Z,39.55
2022-08-29T14:39:16.514Z,41.43
2022-08-29T14:41:43.597Z,39.47
2022-08-29T14:44:10.911Z,36.95
2022-08-29T14:46:48.317Z,40.71
2022-08-29T14:49:15.524Z,38.65
2022-08-29T14:51:44.275Z,43.24
2022-08-29T14:54:12.625Z,40.36
2022-08-29T14:56:49.558Z,41.01
2022-08-29T14:59:21.645Z,44.84
2022-08-29T15:01:54.103Z,45.24
2022-08-29T15:04:35.794Z,44.40
2022-08-29T15:07:11.628Z,46.34
2022-08-29T15:09:39.628Z,46.61
2022-08-29T15:12:07.149Z,40.75
2022-08-29T15:14:34.715Z,44.23
2022-08-29T15:17:04.075Z,44.92
2022-08-29T15:20:17.859Z,43.55
2022-08-29T15:22:20.939Z,39.56
2022-08-29T15:24:50.096Z,45.93
2022-08-29T15:27:26.785Z,48.03
2022-08-29T15:29:55.663Z,46.59
2022-08-29T15:32:22.960Z,46.25
2022-08-29T15:34:50.946Z,48.24
2022-08-29T15:37:18.169Z,47.67
2022-08-29T15:39:45.323Z,42.37
2022-08-29T15:42:17.209Z,47.35
2022-08-29T15:44:44.921Z,47.29
2022-08-29T15:47:11.994Z,48.40
2022-08-29T15:49:39.527Z,48.07
2022-08-29T15:52:07.177Z,48.34
2022-08-29T15:54:35.727Z,46.87
2022-08-29T15:57:03.394Z,47.55
2022-08-29T15:59:54.132Z,47.08
2022-08-29T16:02:18.392Z,44.67
2022-08-29T16:04:47.603Z,45.53
2022-08-29T16:07:15.648Z,43.79
2022-08-29T16:09:43.567Z,36.94
2022-08-29T16:12:11.295Z,34.82
2022-08-29T16:14:58.503Z,34.26
2022-08-29T16:17:29.605Z,34.06
2022-08-29T16:19:58.050Z,33.25
2022-08-29T16:22:27.637Z,33.37
2022-08-29T16:24:55.147Z,33.74
2022-08-29T16:27:24.045Z,33.87
2022-08-29T16:29:52.446Z,32.36
2022-08-29T16:32:19.780Z,31.70
2022-08-29T16:34:46.911Z,31.12
2022-08-29T16:37:14.554Z,30.95
2022-08-29T16:39:41.798Z,31.13
2022-08-29T16:42:12.029Z,31.24
2022-08-29T16:44:40.338Z,31.26
2022-08-29T16:47:07.625Z,30.76
2022-08-29T16:49:35.017Z,30.42
2022-08-29T16:52:03.605Z,30.24
2022-08-29T16:54:31.402Z,30.22
2022-08-29T16:56:58.674Z,30.01
2022-08-29T16:59:25.881Z,29.90
2022-08-29T17:01:53.888Z,29.98
2022-08-29T17:04:24.179Z,29.42
2022-08-29T17:06:52.387Z,29.20
2022-08-29T17:09:22.141Z,28.98
2022-08-29T17:11:50.792Z,29.22
2022-08-29T17:14:21.335Z,29.37
2022-08-29T17:16:51.434Z,29.36
2022-08-29T17:19:19.468Z,29.70
2022-08-29T17:21:47.681Z,28.89
2022-08-29T17:24:15.331Z,28.24
2022-08-29T17:26:44.988Z,28.67
2022-08-29T17:29:13.341Z,28.59
2022-08-29T17:31:40.859Z,28.14
2022-08-29T17:34:10.129Z,27.98
2022-08-29T17:36:40.468Z,27.72
2022-08-29T17:39:07.966Z,27.37
2022-08-29T17:41:37.101Z,27.15
2022-08-29T17:44:06.852Z,27.16
2022-08-29T17:46:35.045Z,27.04
2022-08-29T17:49:07.395Z,26.79
2022-08-29T17:51:35.550Z,26.52
2022-08-29T17:54:04.360Z,26.79
2022-08-29T17:56:46.288Z,27.02
2022-08-29T17:59:17.799Z,26.83
2022-08-29T18:01:45.419Z,26.81
2022-08-29T18:04:13.044Z,26.63
2022-08-29T18:06:40.748Z,26.40
2022-08-29T18:09:09.183Z,26.29
2022-08-29T18:11:46.178Z,26.06
2022-08-29T18:14:13.600Z,25.72
2022-08-29T18:16:40.773Z,25.78
2022-08-29T18:19:08.383Z,25.52
2022-08-29T18:21:35.958Z,25.46
2022-08-29T18:24:03.916Z,25.10
2022-08-29T18:26:34.417Z,25.16
2022-08-29T18:29:01.573Z,24.89
2022-08-29T18:31:28.727Z,24.79
2022-08-29T18:34:03.094Z,24.42
2022-08-29T18:36:32.167Z,24.57
2022-08-29T18:38:59.641Z,23.99
2022-08-29T18:41:26.858Z,24.19
2022-08-29T18:43:53.991Z,24.14
2022-08-29T18:46:21.785Z,23.74
2022-08-29T18:48:49.026Z,23.70
2022-08-29T18:51:16.301Z,23.68
2022-08-29T18:53:43.812Z,23.51
2022-08-29T18:56:11.468Z,23.32
2022-08-29T18:58:41.197Z,23.32
2022-08-29T19:01:27.073Z,22.99
2022-08-29T19:03:57.609Z,23.20
2022-08-29T19:06:27.350Z,23.14
2022-08-29T19:08:56.395Z,23.16
2022-08-29T19:11:24.458Z,22.86
2022-08-29T19:13:52.527Z,22.84
2022-08-29T19:16:21.297Z,22.14
2022-08-29T19:18:49.103Z,22.54
2022-08-29T19:21:16.327Z,22.53
2022-08-29T19:23:47.156Z,21.74
2022-08-29T19:26:35.719Z,22.22
2022-08-29T19:29:09.226Z,22.21
2022-08-29T19:31:36.391Z,22.14
2022-08-29T19:34:03.548Z,22.23
2022-08-29T19:36:30.756Z,22.16
2022-08-29T19:38:58.032Z,22.18
2022-08-29T19:41:25.570Z,21.97
2022-08-29T19:43:53.018Z,22.16
2022-08-29T19:46:22.378Z,22.11
2022-08-29T19:48:51.460Z,21.30
2022-08-29T19:51:24.983Z,21.79
2022-08-29T19:53:56.527Z,21.47
2022-08-29T19:56:26.721Z,21.50
2022-08-29T19:58:54.674Z,21.57
2022-08-29T20:01:21.959Z,21.57
2022-08-29T20:03:49.158Z,21.60
2022-08-29T20:06:16.411Z,21.67
2022-08-29T20:08:48.632Z,21.70
2022-08-29T20:11:22.291Z,21.55
2022-08-29T20:13:51.487Z,21.12
2022-08-29T20:16:22.336Z,21.13
2022-08-29T20:18:50.956Z,20.94
2022-08-29T20:21:19.299Z,20.94
2022-08-29T20:23:49.476Z,20.97
2022-08-29T20:26:19.943Z,21.07
2022-08-29T20:28:48.569Z,20.68
2022-08-29T20:31:15.927Z,20.61
2022-08-29T20:33:44.901Z,20.43
2022-08-29T20:36:30.651Z,20.59
2022-08-29T20:38:58.323Z,20.69
2022-08-29T20:41:25.848Z,20.66
2022-08-29T20:43:53.150Z,20.65
2022-08-29T20:46:20.736Z,20.72
2022-08-29T20:48:47.878Z,20.82
2022-08-29T20:51:15.005Z,20.55
2022-08-29T20:53:42.175Z,20.51
2022-08-29T20:56:09.715Z,20.49
2022-08-29T20:58:36.860Z,20.17
2022-08-29T21:01:04.502Z,20.36
2022-08-29T21:03:50.264Z,20.33
2022-08-29T21:06:21.749Z,20.23
2022-08-29T21:08:49.039Z,20.18
2022-08-29T21:11:16.442Z,20.14
2022-08-29T21:13:43.974Z,20.26
2022-08-29T21:16:11.787Z,20.25
2022-08-29T21:18:39.554Z,20.24
2022-08-29T21:21:07.690Z,20.40
2022-08-29T21:23:34.807Z,20.18
2022-08-29T21:26:02.436Z,20.18
2022-08-29T21:28:32.750Z,20.28
2022-08-29T21:31:18.346Z,20.18
2022-08-29T21:33:45.714Z,20.12
2022-08-29T21:36:19.522Z,20.12
2022-08-29T21:38:47.892Z,19.89
2022-08-29T21:41:15.047Z,20.01
2022-08-29T21:43:42.502Z,19.93
2022-08-29T21:46:21.527Z,20.06
2022-08-29T21:48:56.394Z,20.09
2022-08-29T21:51:25.357Z,20.09
2022-08-29T21:53:55.575Z,19.86
2022-08-29T21:56:23.915Z,19.69
2022-08-29T21:58:52.862Z,19.99
2022-08-29T22:01:23.478Z,20.05
2022-08-29T22:03:50.870Z,19.94
2022-08-29T22:06:18.250Z,19.83
2022-08-29T22:08:46.723Z,19.68
2022-08-29T22:11:18.856Z,19.75
2022-08-29T22:13:46.010Z,19.89
2022-08-29T22:16:29.518Z,19.80
2022-08-29T22:18:58.102Z,19.78
2022-08-29T22:21:26.173Z,19.74
2022-08-29T22:23:53.893Z,19.66
2022-08-29T22:26:21.644Z,19.76
2022-08-29T22:28:48.877Z,19.81
2022-08-29T22:31:16.283Z,19.79
2022-08-29T22:33:43.710Z,19.76
2022-08-29T22:36:12.863Z,19.75
2022-08-29T22:38:43.949Z,19.65
2022-08-29T22:41:13.741Z,19.77
2022-08-29T22:43:41.457Z,19.86
2022-08-29T22:46:17.840Z,19.81
2022-08-29T22:48:45.549Z,19.75
2022-08-29T22:51:14.215Z,19.88
2022-08-29T22:53:41.701Z,19.68
2022-08-29T22:56:09.615Z,19.79
2022-08-29T22:58:36.757Z,19.71
2022-08-29T23:01:04.379Z,19.80
2022-08-29T23:03:32.102Z,19.80
2022-08-29T23:05:59.594Z,19.69
2022-08-29T23:08:26.770Z,19.74
2022-08-29T23:10:54.394Z,19.66
2022-08-29T23:13:22.249Z,19.58
2022-08-29T23:15:49.442Z,19.55
2022-08-29T23:18:16.633Z,19.66
2022-08-29T23:20:45.662Z,19.68
2022-08-29T23:23:14.090Z,19.53
2022-08-29T23:25:41.253Z,19.57
2022-08-29T23:28:08.427Z,19.59
2022-08-29T23:30:35.548Z,19.56
2022-08-29T23:33:02.755Z,19.57
2022-08-29T23:35:29.879Z,19.46
2022-08-29T23:37:57.106Z,19.44
2022-08-29T23:40:24.274Z,19.38
2022-08-29T23:42:51.505Z,19.35
2022-08-29T23:45:19.261Z,19.29
2022-08-29T23:47:46.487Z,19.29
2022-08-29T23:50:14.167Z,19.29
2022-08-29T23:52:42.370Z,19.34
2022-08-29T23:55:12.365Z,19.29
2022-08-29T23:57:40.016Z,19.34
